Flight Track Log - Related Links

Times and Time Zones

All times are in EDT time to prevent confusion due to time zone crossing. See the XOJ552 flight status page for this flight to view local times or setup timezone preferences in your user account.

Time Position Orientation Groundspeed Altitude Reporting Facility
EDT Latitude Longitude Course Direction KTS MPH feet Rate Location/Type
Fri 02:39:13 PM 42.4667 -71.3167 251° West 157 181 1,000  Level KA90
Fri 02:40:07 PM 42.4500 -71.3833 251° West 235 270 3,500 3,105 Climbing KA90
Fri 02:41:07 PM 42.3667 -71.4000 188° South 277 319 6,900 3,450 Climbing KA90
Fri 02:42:07 PM 42.3000 -71.3667 160° South 313 360 10,400 3,500 Climbing KA90
Fri 02:43:07 PM 42.2500 -71.2667 124° Southeast 322 371 13,900 1,669 Climbing KA90
Fri 02:44:20 PM 42.2097 -71.1450 114° Southeast 367 422 14,100 90 Climbing Boston Center
Fri 02:45:20 PM 42.1683 -71.0114 113° Southeast 353 406 14,100 -50 Level Boston Center
Fri 02:46:20 PM 42.1272 -70.8919 115° Southeast 376 433 14,000 1,125 Descending Boston Center
Fri 02:48:32 PM 41.9508 -70.6564 135° Southeast 385 443 17,700 1,719 Climbing Boston Center
Fri 02:49:32 PM 41.8575 -70.5531 140° Southeast 408 470 19,500 1,750 Climbing Boston Center
Fri 02:50:32 PM 41.7703 -70.4611 142° Southeast 425 489 21,200 1,750 Climbing Boston Center
Fri 02:51:32 PM 41.6811 -70.3636 141° Southeast 437 503 23,000 1,800 Climbing Boston Center
Fri 02:52:32 PM 41.5750 -70.2589 144° Southeast 445 512 24,800 1,750 Climbing Boston Center
Fri 02:53:32 PM 41.4769 -70.1542 141° Southeast 451 519 26,500 1,589 Climbing Boston Center
Fri 02:55:03 PM 41.3289 -70.0044 143° Southeast 454 522 28,800 1,461 Climbing New York Center
Fri 02:56:04 PM 41.2261 -69.8953 141° Southeast 469 540 30,200 1,091 Climbing New York Center
Fri 02:57:04 PM 41.1214 -69.7892 143° Southeast 474 545 31,000 397 Climbing New York Center
Fri 02:58:05 PM 41.0142 -69.6778 142° Southeast 479 551 31,000  Level New York Center
Fri 02:59:03 PM 40.9028 -69.5669 143° Southeast 491 565 31,000  Level New York Center
Fri 03:00:05 PM 40.7808 -69.4458 143° Southeast 502 578 31,000  Level New York Center
Fri 03:01:05 PM 40.6689 -69.3300 142° Southeast 507 583 31,000  Level New York Center
Fri 03:02:03 PM 40.5594 -69.2203 143° Southeast 512 589 31,000  Level New York Center
Fri 03:03:03 PM 40.4494 -69.1081 142° Southeast 512 589 31,000  Level New York Center
Fri 03:04:04 PM 40.3397 -68.9964 142° Southeast 512 589 31,000  Level New York Center
Fri 03:05:04 PM 40.2278 -68.8931 145° Southeast 506 582 31,000  Level New York Center
Fri 03:06:05 PM 40.1194 -68.7764 141° Southeast 506 582 31,000  Level New York Center
Fri 03:07:05 PM 40.0094 -68.6711 144° Southeast 506 582 31,000  Level New York Center
Fri 03:08:05 PM 39.8992 -68.5661 144° Southeast 506 582 31,000  Level New York Center
Fri 03:09:03 PM 39.7908 -68.4533 141° Southeast 500 575 31,000  Level New York Center
Fri 03:10:03 PM 39.6803 -68.3461 143° Southeast 500 575 31,000  Level New York Center
Fri 03:11:04 PM 39.5678 -68.2422 145° Southeast 500 575 31,000  Level New York Center
Fri 03:12:04 PM 39.4572 -68.1383 144° Southeast 500 575 31,000  Level New York Center
Fri 03:13:05 PM 39.3464 -68.0325 144° Southeast 500 575 31,000  Level New York Center
Fri 03:14:05 PM 39.2356 -67.9292 144° Southeast 495 570 31,000  Level New York Center
Fri 03:15:03 PM 39.1522 -67.8389 140° Southeast 495 570 31,000  Level New York Center
Fri 03:16:03 PM 39.0197 -67.7106 143° Southeast 495 570 31,000  Level New York Center
Fri 03:17:04 PM 38.9086 -67.6111 145° Southeast 495 570 31,000  Level New York Center
Fri 03:18:05 PM 38.7878 -67.5308 153° Southeast 490 564 31,000  Level New York Center
Fri 03:19:03 PM 38.6853 -67.4503 148° Southeast 490 564 31,000  Level New York Center
Fri 03:20:05 PM 38.8833 -67.5667 157° South 505 581 31,000  Level New York Oceanic (ODAPS)
Fri 03:20:05 PM 38.5683 -67.3625 157° South 490 564 31,000  Level New York Center
Fri 03:21:03 PM 38.4511 -67.2750 150° Southeast 490 564 31,000  Level New York Center
Fri 03:22:04 PM 38.3336 -67.1881 150° Southeast 490 564 31,000  Level New York Center
Fri 03:23:04 PM 38.2867 -67.1531 150° Southeast 490 564 31,000  Level New York Center
Fri 03:25:05 PM 38.2867 -67.1531 134° Southeast 490 564 31,000  Level New York Center
Fri 03:27:03 PM 38.2867 -67.1531 134° Southeast 490 564 31,000  Level New York Center
Fri 03:29:05 PM 38.2867 -67.1531 134° Southeast 490 564 31,000  Level New York Center
Fri 03:31:04 PM 38.2867 -67.1531 134° Southeast 490 564 31,000  Level New York Center
Fri 03:31:49 PM 37.4500 -66.8167 157° South 475 547 31,000  Level New York Oceanic (ODAPS)
Fri 03:33:05 PM 38.2867 -67.1531 157° South 490 564 31,000  Level New York Center
Fri 03:35:03 PM 38.2867 -67.1531 134° Southeast 490 564 31,000  Level New York Center
Fri 03:37:04 PM 38.2867 -67.1531 134° Southeast 490 564 31,000  Level New York Center
Fri 03:39:05 PM 38.2867 -67.1531 134° Southeast 490 564 31,000  Level New York Center
Fri 03:41:04 PM 38.2867 -67.1531 134° Southeast 490 564 31,000  Level New York Center
Fri 03:43:05 PM 38.2867 -67.1531 134° Southeast 490 564 31,000  Level New York Center
Fri 03:45:03 PM 38.2867 -67.1531 134° Southeast 490 564 31,000  Level New York Center
Fri 03:47:05 PM 38.2867 -67.1531 134° Southeast 490 564 31,000  Level New York Center
Fri 03:47:08 PM 35.2500 -65.6833 164° South 482 555 31,000  Level New York Oceanic (ODAPS)
Fri 03:48:05 PM 38.2867 -67.1531 164° South 490 564 31,000  Level New York Center
Fri 03:50:03 PM 38.2867 -67.1531 134° Southeast 490 564 31,000  Level New York Center
Fri 03:52:05 PM 38.2867 -67.1531 134° Southeast 490 564 31,000  Level New York Center
Fri 03:54:03 PM 38.2867 -67.1531 134° Southeast 490 564 31,000  Level New York Center
Fri 03:56:04 PM 38.2867 -67.1531 134° Southeast 490 564 31,000  Level New York Center
Fri 03:58:06 PM 38.2867 -67.1531 134° Southeast 490 564 31,000  Level New York Center
Fri 04:00:04 PM 38.2867 -67.1531 134° Southeast 490 564 31,000  Level New York Center
Fri 04:02:03 PM 38.2867 -67.1531 134° Southeast 490 564 31,000  Level New York Center
Fri 04:04:05 PM 38.2867 -67.1531 134° Southeast 490 564 31,000  Level New York Center
Fri 04:06:03 PM 38.2867 -67.1531 134° Southeast 490 564 31,000  Level New York Center
Fri 04:08:04 PM 38.2867 -67.1531 134° Southeast 490 564 31,000  Level New York Center
Fri 04:10:05 PM 38.2867 -67.1531 134° Southeast 490 564 31,000  Level New York Center
Fri 04:12:06 PM 38.2867 -67.1531 134° Southeast 490 564 31,000  Level New York Center
Fri 04:14:04 PM 38.2867 -67.1531 134° Southeast 490 564 31,000  Level New York Center
Fri 04:16:03 PM 38.2867 -67.1531 134° Southeast 490 564 31,000  Level New York Center
Fri 04:18:04 PM 38.2867 -67.1531 134° Southeast 490 564 31,000  Level New York Center
Fri 04:20:03 PM 38.2867 -67.1531 134° Southeast 490 564 31,000  Level New York Center
Fri 04:22:04 PM 38.2867 -67.1531 134° Southeast 490 564 31,000  Level New York Center
Fri 04:24:03 PM 38.2867 -67.1531 134° Southeast 490 564 31,000  Level New York Center
Fri 04:26:04 PM 38.2867 -67.1531 134° Southeast 490 564 31,000  Level New York Center
Fri 04:28:03 PM 38.2867 -67.1531 134° Southeast 490 564 31,000  Level New York Center
Fri 04:30:04 PM 38.2867 -67.1531 134° Southeast 490 564 31,000  Level New York Center
Fri 04:32:05 PM 38.2867 -67.1531 134° Southeast 490 564 31,000  Level New York Center
Fri 04:34:06 PM 38.2867 -67.1531 134° Southeast 490 564 31,000  Level New York Center
Fri 04:37:04 PM 38.2867 -67.1531 134° Southeast 490 564 31,000  Level New York Center
Fri 04:39:05 PM 38.2867 -67.1531 134° Southeast 490 564 31,000  Level New York Center
Fri 04:41:06 PM 38.2867 -67.1531 134° Southeast 490 564 31,000  Level New York Center
Fri 04:43:06 PM 38.2867 -67.1531 134° Southeast 490 564 31,000  Level New York Center
Fri 04:45:05 PM 38.2867 -67.1531 134° Southeast 490 564 31,000  Level New York Center
Fri 04:47:03 PM 38.2867 -67.1531 134° Southeast 490 564 31,000  Level New York Center
Fri 04:49:04 PM 38.2867 -67.1531 134° Southeast 490 564 31,000  Level New York Center
Fri 04:51:05 PM 38.2867 -67.1531 134° Southeast 490 564 31,000  Level New York Center
Fri 04:53:04 PM 38.2867 -67.1531 134° Southeast 490 564 31,000  Level New York Center
Fri 04:55:05 PM 38.2867 -67.1531 134° Southeast 490 564 31,000  Level New York Center
Fri 04:57:03 PM 38.2867 -67.1531 134° Southeast 490 564 31,000  Level New York Center
Fri 04:59:03 PM 38.2867 -67.1531 134° Southeast 490 564 31,000  Level New York Center
Fri 05:01:04 PM 38.2867 -67.1531 134° Southeast 490 564 31,000  Level New York Center
Fri 05:03:06 PM 38.2867 -67.1531 134° Southeast 490 564 31,000  Level New York Center
Fri 05:05:03 PM 38.2867 -67.1531 134° Southeast 490 564 31,000  Level New York Center
Fri 05:07:04 PM 38.2867 -67.1531 134° Southeast 490 564 31,000  Level New York Center
Fri 05:09:04 PM 38.2867 -67.1531 134° Southeast 490 564 31,000  Level New York Center
Fri 05:11:04 PM 38.2867 -67.1531 134° Southeast 490 564 31,000  Level New York Center
Fri 05:13:03 PM 38.2867 -67.1531 134° Southeast 490 564 31,000  Level New York Center
Fri 05:15:06 PM 38.2867 -67.1531 134° Southeast 490 564 31,000  Level New York Center
Fri 05:17:05 PM 38.2867 -67.1531 134° Southeast 490 564 31,000  Level New York Center
Fri 05:19:03 PM 38.2867 -67.1531 134° Southeast 490 564 31,000  Level New York Center
Fri 05:21:04 PM 38.2867 -67.1531 134° Southeast 490 564 31,000  Level New York Center
Fri 05:23:05 PM 38.2867 -67.1531 134° Southeast 490 564 31,000  Level New York Center
Fri 05:25:03 PM 38.2867 -67.1531 134° Southeast 490 564 31,000  Level New York Center
Fri 05:27:06 PM 38.2867 -67.1531 134° Southeast 490 564 31,000  Level New York Center
Fri 05:29:03 PM 38.2867 -67.1531 134° Southeast 490 564 31,000  Level New York Center
Fri 05:31:06 PM 38.2867 -67.1531 134° Southeast 490 564 31,000  Level New York Center
Fri 05:33:03 PM 38.2867 -67.1531 134° Southeast 490 564 31,000  Level New York Center
Fri 05:35:04 PM 38.2867 -67.1531 134° Southeast 490 564 31,000  Level New York Center
Fri 05:37:04 PM 38.2867 -67.1531 134° Southeast 490 564 31,000  Level New York Center
Fri 05:39:05 PM 38.2867 -67.1531 134° Southeast 490 564 31,000  Level New York Center
Fri 05:41:03 PM 38.2867 -67.1531 134° Southeast 490 564 31,000  Level New York Center
Fri 05:43:04 PM 38.2867 -67.1531 134° Southeast 490 564 31,000  Level New York Center
Fri 05:45:03 PM 38.2867 -67.1531 134° Southeast 490 564 31,000  Level New York Center
Fri 05:47:03 PM 38.2867 -67.1531 134° Southeast 490 564 31,000  Level New York Center
Fri 05:49:04 PM 38.2867 -67.1531 134° Southeast 490 564 31,000  Level New York Center
Fri 05:51:06 PM 38.2867 -67.1531 134° Southeast 490 564 31,000  Level New York Center
Fri 05:53:03 PM 38.2867 -67.1531 134° Southeast 490 564 31,000  Level New York Center
Fri 05:55:05 PM 38.2867 -67.1531 134° Southeast 490 564 31,000  Level New York Center
Fri 05:57:03 PM 38.2867 -67.1531 134° Southeast 490 564 31,000  Level New York Center
Fri 05:59:04 PM 38.2867 -67.1531 134° Southeast 490 564 31,000  Level New York Center
Fri 06:01:03 PM 38.2867 -67.1531 134° Southeast 490 564 31,000  Level New York Center
Fri 06:03:04 PM 38.2867 -67.1531 134° Southeast 490 564 31,000  Level New York Center
Fri 06:05:03 PM 38.2867 -67.1531 134° Southeast 490 564 31,000  Level New York Center
Fri 06:07:05 PM 38.2867 -67.1531 134° Southeast 490 564 31,000  Level New York Center
Fri 06:09:04 PM 38.2867 -67.1531 134° Southeast 490 564 31,000  Level New York Center
Fri 06:11:06 PM 38.2867 -67.1531 134° Southeast 490 564 31,000  Level New York Center
Fri 06:13:03 PM 38.2867 -67.1531 134° Southeast 490 564 31,000  Level New York Center
Fri 06:15:05 PM 38.2867 -67.1531 134° Southeast 490 564 31,000  Level New York Center
Fri 06:17:03 PM 38.2867 -67.1531 134° Southeast 490 564 31,000  Level New York Center
Fri 06:19:04 PM 38.2867 -67.1531 134° Southeast 490 564 31,000  Level New York Center
Fri 06:21:03 PM 38.2867 -67.1531 134° Southeast 490 564 31,000  Level New York Center
Fri 06:23:05 PM 38.2867 -67.1531 134° Southeast 490 564 31,000  Level New York Center
Fri 06:25:06 PM 38.2867 -67.1531 134° Southeast 490 564 31,000  Level New York Center
Fri 06:27:03 PM 38.2867 -67.1531 134° Southeast 490 564 31,000  Level New York Center
Fri 06:29:03 PM 38.2867 -67.1531 134° Southeast 490 564 31,000  Level New York Center
Fri 06:31:05 PM 38.2867 -67.1531 134° Southeast 490 564 31,000  Level New York Center
Fri 06:33:04 PM 38.2867 -67.1531 134° Southeast 490 564 31,000  Level New York Center
Fri 06:35:06 PM 38.2867 -67.1531 134° Southeast 490 564 31,000  Level New York Center
Fri 06:37:04 PM 38.2867 -67.1531 134° Southeast 490 564 31,000  Level New York Center
Fri 06:39:05 PM 38.2867 -67.1531 134° Southeast 490 564 31,000  Level New York Center
Fri 06:41:03 PM 38.2867 -67.1531 134° Southeast 490 564 31,000  Level New York Center
Fri 06:43:04 PM 38.2867 -67.1531 134° Southeast 490 564 31,000  Level New York Center
Fri 06:45:05 PM 38.2867 -67.1531 134° Southeast 490 564 31,000  Level New York Center
Fri 06:47:05 PM 38.2867 -67.1531 134° Southeast 490 564 31,000  Level New York Center
Fri 06:49:04 PM 38.2867 -67.1531 134° Southeast 490 564 31,000  Level New York Center
Fri 06:51:05 PM 38.2867 -67.1531 134° Southeast 490 564 31,000  Level New York Center
Fri 06:53:04 PM 38.2867 -67.1531 134° Southeast 490 564 31,000  Level New York Center

Login

Don't have an account? Register now (free) for customized features, flight alerts, and more!